PWSweather.com
Personal Weather Stations
Station Observations
KTXPLANO70
Kemper Estates, Plano, TX

Kemper EstatesPlano, TX

Lat: 33.0674, Lon: -96.7659

Elevation: 737

Station Type: Davis Vantage Pro2

http://www.dallasdawg.com

Latest ConditionsUpdated 3:50:01 PM CST Sunday, Jan 19, 2020
Currently Today's Max Today's Min Today's Average
Temperature 52.9°F11.6°C 53.6°F12.0°C 31.4°F-0.3°C 41.7°F5.4°C
Dew Point 24.5°F-4.2°C 25.7°F-3.5°C 17.8°F-7.9°C 23.2°F-4.9°C
Winds 4.6 mph NW7.4 kmh NW 6.9 mph -11.1 kmh - - 2.3 mph 3.7 kmh
Wind Gusts 8.1 mph13.0 kmh 10.4 mph16.7 kmh - -
Humidity 33% 74% 30% 50%
Pressure 30.53 in1033.9 mb 30.64 in1037.6 mb 30.50 in1032.8 mb -
Hour Temp Dew Point Humidity Winds Wind Gusts Pressure Precip Precip Rate Daily Precip Total
03:50 PM 52.9°F11.6°C 24.5°F-4.2°C 33% 4.6 mph NW7.4 kmh NW 8.1 mph13.0 kmh 30.53 in1033.9 mb - 0.00 in0.0 mm 0.00 in0.0 mm
03:45 PM 53.1°F11.7°C 24.7°F-4.1°C 33% 2.3 mph WNW3.7 kmh WNW 4.6 mph7.4 kmh 30.53 in1033.9 mb - 0.00 in0.0 mm 0.00 in0.0 mm
03:40 PM 52.7°F11.5°C 24.4°F-4.2°C 33% 3.5 mph WNW5.6 kmh WNW 3.5 mph5.6 kmh 30.53 in1033.9 mb - 0.00 in0.0 mm 0.00 in0.0 mm
03:35 PM 53.2°F11.8°C 24.8°F-4.0°C 33% 4.6 mph NNE7.4 kmh NNE 8.1 mph13.0 kmh 30.53 in1033.9 mb - 0.00 in0.0 mm 0.00 in0.0 mm
03:30 PM 53.4°F11.9°C 25.0°F-3.9°C 33% 2.3 mph NNW3.7 kmh NNW 6.9 mph11.1 kmh 30.53 in1033.9 mb - 0.00 in0.0 mm 0.00 in0.0 mm
03:25 PM 52.9°F11.6°C 25.3°F-3.7°C 34% 3.5 mph NNW5.6 kmh NNW 5.8 mph9.3 kmh 30.53 in1033.9 mb - 0.00 in0.0 mm 0.00 in0.0 mm
03:20 PM 52.5°F11.4°C 23.5°F-4.7°C 32% 3.5 mph NNW5.6 kmh NNW 3.5 mph5.6 kmh 30.54 in1034.2 mb - 0.00 in0.0 mm 0.00 in0.0 mm
03:15 PM 53.1°F11.7°C 23.2°F-4.9°C 31% 5.8 mph NW9.3 kmh NW 6.9 mph11.1 kmh 30.54 in1034.2 mb - 0.00 in0.0 mm 0.00 in0.0 mm
03:10 PM 53.1°F11.7°C 23.2°F-4.9°C 31% 3.5 mph NW5.6 kmh NW 5.8 mph9.3 kmh 30.54 in1034.2 mb - 0.00 in0.0 mm 0.00 in0.0 mm
03:00 PM 53.2°F11.8°C 24.1°F-4.4°C 32% 3.5 mph NNE5.6 kmh NNE 3.5 mph5.6 kmh 30.54 in1034.2 mb - 0.00 in0.0 mm 0.00 in0.0 mm
02:55 PM 53.3°F11.8°C 24.2°F-4.3°C 32% 4.6 mph NNW7.4 kmh NNW 9.2 mph14.8 kmh 30.54 in1034.2 mb - 0.00 in0.0 mm 0.00 in0.0 mm
02:50 PM 53.0°F11.7°C 23.9°F-4.5°C 32% 2.3 mph NW3.7 kmh NW 3.5 mph5.6 kmh 30.54 in1034.2 mb - 0.00 in0.0 mm 0.00 in0.0 mm
02:45 PM 53.6°F12.0°C 25.2°F-3.8°C 33% 4.6 mph NW7.4 kmh NW 8.1 mph13.0 kmh 30.55 in1034.5 mb - 0.00 in0.0 mm 0.00 in0.0 mm
02:40 PM 53.4°F11.9°C 25.7°F-3.5°C 34% 3.5 mph N5.6 kmh N 4.6 mph7.4 kmh 30.55 in1034.5 mb - 0.00 in0.0 mm 0.00 in0.0 mm
02:35 PM 53.1°F11.7°C 24.0°F-4.4°C 32% 2.3 mph WSW3.7 kmh WSW 3.5 mph5.6 kmh 30.55 in1034.5 mb - 0.00 in0.0 mm 0.00 in0.0 mm
02:30 PM 53.4°F11.9°C 24.2°F-4.3°C 32% 5.8 mph NW9.3 kmh NW 10.4 mph16.7 kmh 30.55 in1034.5 mb - 0.00 in0.0 mm 0.00 in0.0 mm
02:25 PM 53.0°F11.7°C 24.7°F-4.1°C 33% 3.5 mph NW5.6 kmh NW 9.2 mph14.8 kmh 30.55 in1034.5 mb - 0.00 in0.0 mm 0.00 in0.0 mm
02:20 PM 52.9°F11.6°C 23.8°F-4.6°C 32% 3.5 mph NW5.6 kmh NW 5.8 mph9.3 kmh 30.55 in1034.5 mb - 0.00 in0.0 mm 0.00 in0.0 mm
02:15 PM 52.6°F11.4°C 23.5°F-4.7°C 32% 3.5 mph W5.6 kmh W 5.8 mph9.3 kmh 30.55 in1034.5 mb - 0.00 in0.0 mm 0.00 in0.0 mm
02:10 PM 52.6°F11.4°C 23.6°F-4.7°C 32% 3.5 mph NNW5.6 kmh NNW 4.6 mph7.4 kmh 30.56 in1034.9 mb - 0.00 in0.0 mm 0.00 in0.0 mm
02:00 PM 53.2°F11.8°C 24.8°F-4.0°C 33% 2.3 mph WSW3.7 kmh WSW 5.8 mph9.3 kmh 30.56 in1034.9 mb - 0.00 in0.0 mm 0.00 in0.0 mm
01:55 PM 52.4°F11.3°C 24.1°F-4.4°C 33% 2.3 mph NW3.7 kmh NW 4.6 mph7.4 kmh 30.56 in1034.9 mb - 0.00 in0.0 mm 0.00 in0.0 mm
01:50 PM 52.8°F11.6°C 22.9°F-5.1°C 31% 2.3 mph NW3.7 kmh NW 3.5 mph5.6 kmh 30.56 in1034.9 mb - 0.00 in0.0 mm 0.00 in0.0 mm
01:45 PM 52.5°F11.4°C 24.2°F-4.3°C 33% 3.5 mph WSW5.6 kmh WSW 6.9 mph11.1 kmh 30.56 in1034.9 mb - 0.00 in0.0 mm 0.00 in0.0 mm
01:40 PM 52.6°F11.4°C 25.0°F-3.9°C 34% 2.3 mph WSW3.7 kmh WSW 5.8 mph9.3 kmh 30.57 in1035.2 mb - 0.00 in0.0 mm 0.00 in0.0 mm
01:35 PM 52.3°F11.3°C 24.0°F-4.4°C 33% 5.8 mph WSW9.3 kmh WSW 5.8 mph9.3 kmh 30.57 in1035.2 mb - 0.00 in0.0 mm 0.00 in0.0 mm
01:30 PM 52.1°F11.2°C 23.1°F-4.9°C 32% 3.5 mph W5.6 kmh W 5.8 mph9.3 kmh 30.57 in1035.2 mb - 0.00 in0.0 mm 0.00 in0.0 mm
01:25 PM 52.0°F11.1°C 23.8°F-4.6°C 33% 4.6 mph NW7.4 kmh NW 4.6 mph7.4 kmh 30.57 in1035.2 mb - 0.00 in0.0 mm 0.00 in0.0 mm
01:20 PM 51.8°F11.0°C 22.1°F-5.5°C 31% 1.2 mph SW1.9 kmh SW 1.2 mph1.9 kmh 30.57 in1035.2 mb - 0.00 in0.0 mm 0.00 in0.0 mm
01:15 PM 52.3°F11.3°C 24.0°F-4.4°C 33% 4.6 mph NW7.4 kmh NW 8.1 mph13.0 kmh 30.58 in1035.6 mb - 0.00 in0.0 mm 0.00 in0.0 mm
01:10 PM 51.9°F11.1°C 22.9°F-5.1°C 32% 2.3 mph W3.7 kmh W 3.5 mph5.6 kmh 30.58 in1035.6 mb - 0.00 in0.0 mm 0.00 in0.0 mm
01:00 PM 51.5°F10.8°C 21.0°F-6.1°C 30% 3.5 mph NNW5.6 kmh NNW 3.5 mph5.6 kmh 30.59 in1035.9 mb - 0.00 in0.0 mm 0.00 in0.0 mm
12:55 PM 51.5°F10.8°C 22.6°F-5.2°C 32% 2.3 mph WNW3.7 kmh WNW 3.5 mph5.6 kmh 30.59 in1035.9 mb - 0.00 in0.0 mm 0.00 in0.0 mm
12:50 PM 51.3°F10.7°C 23.9°F-4.5°C 34% 2.3 mph NW3.7 kmh NW 5.8 mph9.3 kmh 30.59 in1035.9 mb - 0.00 in0.0 mm 0.00 in0.0 mm
12:45 PM 50.6°F10.3°C 21.8°F-5.7°C 32% 6.9 mph NE11.1 kmh NE 6.9 mph11.1 kmh 30.60 in1036.2 mb - 0.00 in0.0 mm 0.00 in0.0 mm
12:40 PM 50.6°F10.3°C 21.1°F-6.1°C 31% 4.6 mph NE7.4 kmh NE 6.9 mph11.1 kmh 30.60 in1036.2 mb - 0.00 in0.0 mm 0.00 in0.0 mm
12:35 PM 51.0°F10.6°C 21.4°F-5.9°C 31% 2.3 mph WSW3.7 kmh WSW 4.6 mph7.4 kmh 30.60 in1036.2 mb - 0.00 in0.0 mm 0.00 in0.0 mm
12:30 PM 50.9°F10.5°C 21.3°F-5.9°C 31% 2.3 mph W3.7 kmh W 3.5 mph5.6 kmh 30.61 in1036.6 mb - 0.00 in0.0 mm 0.00 in0.0 mm
12:25 PM 51.0°F10.6°C 21.3°F-5.9°C 31% 2.3 mph W3.7 kmh W 4.6 mph7.4 kmh 30.61 in1036.6 mb - 0.00 in0.0 mm 0.00 in0.0 mm
12:20 PM 50.0°F10.0°C 20.5°F-6.4°C 31% 3.5 mph NW5.6 kmh NW 3.5 mph5.6 kmh 30.61 in1036.6 mb - 0.00 in0.0 mm 0.00 in0.0 mm
12:15 PM 49.5°F9.7°C 20.0°F-6.7°C 31% 4.6 mph N7.4 kmh N 5.8 mph9.3 kmh 30.61 in1036.6 mb - 0.00 in0.0 mm 0.00 in0.0 mm
12:10 PM 49.9°F9.9°C 20.4°F-6.4°C 31% 2.3 mph NNW3.7 kmh NNW 5.8 mph9.3 kmh 30.62 in1036.9 mb - 0.00 in0.0 mm 0.00 in0.0 mm
12:00 PM 49.9°F9.9°C 21.9°F-5.6°C 33% 3.5 mph N5.6 kmh N 5.8 mph9.3 kmh 30.62 in1036.9 mb - 0.00 in0.0 mm 0.00 in0.0 mm
11:55 AM 48.5°F9.2°C 20.6°F-6.3°C 33% 1.2 mph N1.9 kmh N 3.5 mph5.6 kmh 30.62 in1036.9 mb - 0.00 in0.0 mm 0.00 in0.0 mm
11:50 AM 48.8°F9.3°C 20.2°F-6.6°C 32% 2.3 mph NNE3.7 kmh NNE 4.6 mph7.4 kmh 30.63 in1037.3 mb - 0.00 in0.0 mm 0.00 in0.0 mm
11:45 AM 49.2°F9.6°C 22.0°F-5.6°C 34% 2.3 mph N3.7 kmh N 3.5 mph5.6 kmh 30.63 in1037.3 mb - 0.00 in0.0 mm 0.00 in0.0 mm
11:40 AM 48.4°F9.1°C 19.8°F-6.8°C 32% 4.6 mph NW7.4 kmh NW 5.8 mph9.3 kmh 30.63 in1037.3 mb - 0.00 in0.0 mm 0.00 in0.0 mm
11:35 AM 48.3°F9.1°C 19.0°F-7.2°C 31% 3.5 mph NW5.6 kmh NW 3.5 mph5.6 kmh 30.64 in1037.6 mb - 0.00 in0.0 mm 0.00 in0.0 mm
11:30 AM 48.0°F8.9°C 20.9°F-6.2°C 34% 2.3 mph W3.7 kmh W 3.5 mph5.6 kmh 30.64 in1037.6 mb - 0.00 in0.0 mm 0.00 in0.0 mm
11:25 AM 47.3°F8.5°C 18.9°F-7.3°C 32% 3.5 mph N5.6 kmh N 4.6 mph7.4 kmh 30.64 in1037.6 mb - 0.00 in0.0 mm 0.00 in0.0 mm
11:20 AM 47.0°F8.3°C 18.6°F-7.4°C 32% 1.2 mph N1.9 kmh N 2.3 mph3.7 kmh 30.64 in1037.6 mb - 0.00 in0.0 mm 0.00 in0.0 mm
11:15 AM 47.8°F8.8°C 20.0°F-6.7°C 33% 3.5 mph N5.6 kmh N 4.6 mph7.4 kmh 30.64 in1037.6 mb - 0.00 in0.0 mm 0.00 in0.0 mm
11:10 AM 47.9°F8.8°C 20.8°F-6.2°C 34% 2.3 mph NW3.7 kmh NW 3.5 mph5.6 kmh 30.64 in1037.6 mb - 0.00 in0.0 mm 0.00 in0.0 mm
11:00 AM 47.3°F8.5°C 19.6°F-6.9°C 33% 3.5 mph NW5.6 kmh NW 4.6 mph7.4 kmh 30.64 in1037.6 mb - 0.00 in0.0 mm 0.00 in0.0 mm
10:55 AM 46.5°F8.1°C 19.6°F-6.9°C 34% 2.3 mph NNW3.7 kmh NNW 8.1 mph13.0 kmh 30.64 in1037.6 mb - 0.00 in0.0 mm 0.00 in0.0 mm
10:50 AM 46.6°F8.1°C 19.0°F-7.2°C 33% 4.6 mph N7.4 kmh N 5.8 mph9.3 kmh 30.64 in1037.6 mb - 0.00 in0.0 mm 0.00 in0.0 mm
10:45 AM 46.2°F7.9°C 19.3°F-7.1°C 34% 1.2 mph N1.9 kmh N 5.8 mph9.3 kmh 30.64 in1037.6 mb - 0.00 in0.0 mm 0.00 in0.0 mm
10:40 AM 45.8°F7.7°C 19.7°F-6.8°C 35% 2.3 mph NW3.7 kmh NW 3.5 mph5.6 kmh 30.64 in1037.6 mb - 0.00 in0.0 mm 0.00 in0.0 mm
10:35 AM 45.3°F7.4°C 17.8°F-7.9°C 33% 5.8 mph NE9.3 kmh NE 6.9 mph11.1 kmh 30.64 in1037.6 mb - 0.00 in0.0 mm 0.00 in0.0 mm
10:30 AM 45.7°F7.6°C 18.9°F-7.3°C 34% 4.6 mph NE7.4 kmh NE 5.8 mph9.3 kmh 30.64 in1037.6 mb - 0.00 in0.0 mm 0.00 in0.0 mm
10:25 AM 45.7°F7.6°C 18.9°F-7.3°C 34% 2.3 mph NE3.7 kmh NE 3.5 mph5.6 kmh 30.64 in1037.6 mb - 0.00 in0.0 mm 0.00 in0.0 mm
10:20 AM 45.1°F7.3°C 19.7°F-6.8°C 36% 2.3 mph NNW3.7 kmh NNW 3.5 mph5.6 kmh 30.64 in1037.6 mb - 0.00 in0.0 mm 0.00 in0.0 mm
10:15 AM 44.7°F7.1°C 18.7°F-7.4°C 35% 3.5 mph N5.6 kmh N 3.5 mph5.6 kmh 30.64 in1037.6 mb - 0.00 in0.0 mm 0.00 in0.0 mm
10:10 AM 44.0°F6.7°C 18.7°F-7.4°C 36% 3.5 mph NE5.6 kmh NE 4.6 mph7.4 kmh 30.64 in1037.6 mb - 0.00 in0.0 mm 0.00 in0.0 mm
10:00 AM 44.0°F6.7°C 20.0°F-6.7°C 38% 4.6 mph NE7.4 kmh NE 5.8 mph9.3 kmh 30.64 in1037.6 mb - 0.00 in0.0 mm 0.00 in0.0 mm
09:55 AM 43.6°F6.4°C 19.0°F-7.2°C 37% 4.6 mph N7.4 kmh N 3.5 mph5.6 kmh 30.63 in1037.3 mb - 0.00 in0.0 mm 0.00 in0.0 mm
09:50 AM 43.3°F6.3°C 20.6°F-6.3°C 40% 2.3 mph NE3.7 kmh NE 6.9 mph11.1 kmh 30.63 in1037.3 mb - 0.00 in0.0 mm 0.00 in0.0 mm
09:45 AM 43.2°F6.2°C 20.5°F-6.4°C 40% 4.6 mph NE7.4 kmh NE 8.1 mph13.0 kmh 30.63 in1037.3 mb - 0.00 in0.0 mm 0.00 in0.0 mm
09:40 AM 42.7°F5.9°C 20.0°F-6.7°C 40% 3.5 mph NE5.6 kmh NE 4.6 mph7.4 kmh 30.63 in1037.3 mb - 0.00 in0.0 mm 0.00 in0.0 mm
09:35 AM 42.7°F5.9°C 21.2°F-6.0°C 42% 2.3 mph N3.7 kmh N 4.6 mph7.4 kmh 30.63 in1037.3 mb - 0.00 in0.0 mm 0.00 in0.0 mm
09:30 AM 42.1°F5.6°C 20.6°F-6.3°C 42% 2.3 mph N3.7 kmh N 2.3 mph3.7 kmh 30.63 in1037.3 mb - 0.00 in0.0 mm 0.00 in0.0 mm
09:25 AM 41.8°F5.4°C 20.3°F-6.5°C 42% 3.5 mph N5.6 kmh N 3.5 mph5.6 kmh 30.63 in1037.3 mb - 0.00 in0.0 mm 0.00 in0.0 mm
09:20 AM 41.4°F5.2°C 21.1°F-6.1°C 44% 3.5 mph NNW5.6 kmh NNW 4.6 mph7.4 kmh 30.63 in1037.3 mb - 0.00 in0.0 mm 0.00 in0.0 mm
09:15 AM 41.1°F5.1°C 20.8°F-6.2°C 44% 4.6 mph NE7.4 kmh NE 5.8 mph9.3 kmh 30.62 in1036.9 mb - 0.00 in0.0 mm 0.00 in0.0 mm
09:10 AM 40.6°F4.8°C 20.9°F-6.2°C 45% 2.3 mph NE3.7 kmh NE 3.5 mph5.6 kmh 30.62 in1036.9 mb - 0.00 in0.0 mm 0.00 in0.0 mm
09:00 AM 39.5°F4.2°C 20.4°F-6.4°C 46% 3.5 mph NNE5.6 kmh NNE 5.8 mph9.3 kmh 30.62 in1036.9 mb - 0.00 in0.0 mm 0.00 in0.0 mm
08:55 AM 39.0°F3.9°C 21.5°F-5.8°C 49% 2.3 mph NNE3.7 kmh NNE 4.6 mph7.4 kmh 30.61 in1036.6 mb - 0.00 in0.0 mm 0.00 in0.0 mm
08:50 AM 38.6°F3.7°C 22.9°F-5.1°C 53% 1.2 mph NE1.9 kmh NE 3.5 mph5.6 kmh 30.61 in1036.6 mb - 0.00 in0.0 mm 0.00 in0.0 mm
08:45 AM 38.1°F3.4°C 23.4°F-4.8°C 55% 1.2 mph NNW1.9 kmh NNW 4.6 mph7.4 kmh 30.61 in1036.6 mb - 0.00 in0.0 mm 0.00 in0.0 mm
08:40 AM 37.5°F3.1°C 24.0°F-4.4°C 58% 1.2 mph NW1.9 kmh NW 2.3 mph3.7 kmh 30.61 in1036.6 mb - 0.00 in0.0 mm 0.00 in0.0 mm
08:35 AM 36.6°F2.6°C 24.0°F-4.4°C 60% 1.2 mph NNW1.9 kmh NNW 3.5 mph5.6 kmh 30.61 in1036.6 mb - 0.00 in0.0 mm 0.00 in0.0 mm
08:30 AM 36.0°F2.2°C 23.9°F-4.5°C 61% 1.2 mph N1.9 kmh N 2.3 mph3.7 kmh 30.60 in1036.2 mb - 0.00 in0.0 mm 0.00 in0.0 mm
08:25 AM 35.1°F1.7°C 24.6°F-4.1°C 65% 3.5 mph N5.6 kmh N 4.6 mph7.4 kmh 30.60 in1036.2 mb - 0.00 in0.0 mm 0.00 in0.0 mm
08:20 AM 34.4°F1.3°C 24.5°F-4.2°C 67% 2.3 mph N3.7 kmh N 3.5 mph5.6 kmh 30.60 in1036.2 mb - 0.00 in0.0 mm 0.00 in0.0 mm
08:15 AM 33.2°F0.7°C 24.5°F-4.2°C 70% 1.2 mph NNW1.9 kmh NNW 3.5 mph5.6 kmh 30.60 in1036.2 mb - 0.00 in0.0 mm 0.00 in0.0 mm
08:10 AM 32.5°F0.3°C 24.5°F-4.2°C 72% Calm Calm 3.5 mph5.6 kmh 30.60 in1036.2 mb - 0.00 in0.0 mm 0.00 in0.0 mm
08:00 AM 31.8°F-0.1°C 24.4°F-4.2°C 74% 1.2 mph NW1.9 kmh NW 3.5 mph5.6 kmh 30.60 in1036.2 mb - 0.00 in0.0 mm 0.00 in0.0 mm
07:55 AM 31.6°F-0.2°C 24.3°F-4.3°C 74% 1.2 mph NNW1.9 kmh NNW 2.3 mph3.7 kmh 30.59 in1035.9 mb - 0.00 in0.0 mm 0.00 in0.0 mm
07:50 AM 31.4°F-0.3°C 23.7°F-4.6°C 73% Calm Calm 1.2 mph1.9 kmh 30.59 in1035.9 mb - 0.00 in0.0 mm 0.00 in0.0 mm
07:45 AM 31.4°F-0.3°C 23.7°F-4.6°C 73% Calm Calm 1.2 mph1.9 kmh 30.59 in1035.9 mb - 0.00 in0.0 mm 0.00 in0.0 mm
07:40 AM 31.5°F-0.3°C 23.5°F-4.7°C 72% Calm Calm -- 30.59 in1035.9 mb - 0.00 in0.0 mm 0.00 in0.0 mm
07:35 AM 31.5°F-0.3°C 23.2°F-4.9°C 71% Calm Calm -- 30.59 in1035.9 mb - 0.00 in0.0 mm 0.00 in0.0 mm
07:30 AM 31.6°F-0.2°C 22.9°F-5.1°C 70% Calm Calm 1.2 mph1.9 kmh 30.59 in1035.9 mb - 0.00 in0.0 mm 0.00 in0.0 mm
07:25 AM 31.7°F-0.2°C 22.7°F-5.2°C 69% Calm Calm -- 30.58 in1035.6 mb - 0.00 in0.0 mm 0.00 in0.0 mm
07:20 AM 31.9°F-0.1°C 22.9°F-5.1°C 69% Calm Calm 2.3 mph3.7 kmh 30.58 in1035.6 mb - 0.00 in0.0 mm 0.00 in0.0 mm
07:15 AM 31.9°F-0.1°C 22.9°F-5.1°C 69% Calm Calm 1.2 mph1.9 kmh 30.58 in1035.6 mb - 0.00 in0.0 mm 0.00 in0.0 mm
07:10 AM 32.0°F0.0°C 23.0°F-5.0°C 69% Calm Calm -- 30.58 in1035.6 mb - 0.00 in0.0 mm 0.00 in0.0 mm
07:00 AM 32.7°F0.4°C 22.9°F-5.1°C 67% Calm Calm 1.2 mph1.9 kmh 30.58 in1035.6 mb - 0.00 in0.0 mm 0.00 in0.0 mm
06:55 AM 32.8°F0.4°C 22.7°F-5.2°C 66% Calm Calm 1.2 mph1.9 kmh 30.57 in1035.2 mb - 0.00 in0.0 mm 0.00 in0.0 mm
06:50 AM 33.0°F0.6°C 22.5°F-5.3°C 65% 1.2 mph N1.9 kmh N 1.2 mph1.9 kmh 30.57 in1035.2 mb - 0.00 in0.0 mm 0.00 in0.0 mm
06:45 AM 33.3°F0.7°C 22.8°F-5.1°C 65% Calm Calm 2.3 mph3.7 kmh 30.57 in1035.2 mb - 0.00 in0.0 mm 0.00 in0.0 mm
06:40 AM 33.6°F0.9°C 22.3°F-5.4°C 63% Calm Calm -- 30.57 in1035.2 mb - 0.00 in0.0 mm 0.00 in0.0 mm
06:35 AM 34.0°F1.1°C 22.7°F-5.2°C 63% Calm Calm 1.2 mph1.9 kmh 30.56 in1034.9 mb - 0.00 in0.0 mm 0.00 in0.0 mm
06:30 AM 34.0°F1.1°C 22.3°F-5.4°C 62% 1.2 mph N1.9 kmh N 3.5 mph5.6 kmh 30.56 in1034.9 mb - 0.00 in0.0 mm 0.00 in0.0 mm
06:25 AM 34.3°F1.3°C 22.6°F-5.2°C 62% 1.2 mph N1.9 kmh N 2.3 mph3.7 kmh 30.56 in1034.9 mb - 0.00 in0.0 mm 0.00 in0.0 mm
06:20 AM 34.6°F1.4°C 22.5°F-5.3°C 61% 1.2 mph N1.9 kmh N 3.5 mph5.6 kmh 30.56 in1034.9 mb - 0.00 in0.0 mm 0.00 in0.0 mm
06:15 AM 34.6°F1.4°C 22.5°F-5.3°C 61% 1.2 mph N1.9 kmh N 1.2 mph1.9 kmh 30.55 in1034.5 mb - 0.00 in0.0 mm 0.00 in0.0 mm
06:10 AM 34.9°F1.6°C 22.8°F-5.1°C 61% 1.2 mph NNE1.9 kmh NNE 3.5 mph5.6 kmh 30.55 in1034.5 mb - 0.00 in0.0 mm 0.00 in0.0 mm
06:00 AM 35.3°F1.8°C 22.8°F-5.1°C 60% 2.3 mph N3.7 kmh N 3.5 mph5.6 kmh 30.55 in1034.5 mb - 0.00 in0.0 mm 0.00 in0.0 mm
05:55 AM 35.3°F1.8°C 23.2°F-4.9°C 61% 1.2 mph N1.9 kmh N 3.5 mph5.6 kmh 30.54 in1034.2 mb - 0.00 in0.0 mm 0.00 in0.0 mm
05:50 AM 35.4°F1.9°C 22.9°F-5.1°C 60% 2.3 mph N3.7 kmh N 5.8 mph9.3 kmh 30.54 in1034.2 mb - 0.00 in0.0 mm 0.00 in0.0 mm
05:45 AM 35.6°F2.0°C 23.1°F-4.9°C 60% 1.2 mph NE1.9 kmh NE 3.5 mph5.6 kmh 30.54 in1034.2 mb - 0.00 in0.0 mm 0.00 in0.0 mm
05:40 AM 35.6°F2.0°C 23.1°F-4.9°C 60% 2.3 mph NE3.7 kmh NE 3.5 mph5.6 kmh 30.53 in1033.9 mb - 0.00 in0.0 mm 0.00 in0.0 mm
05:35 AM 35.7°F2.1°C 23.2°F-4.9°C 60% 2.3 mph NE3.7 kmh NE 4.6 mph7.4 kmh 30.53 in1033.9 mb - 0.00 in0.0 mm 0.00 in0.0 mm
05:30 AM 35.7°F2.1°C 23.2°F-4.9°C 60% 3.5 mph NNE5.6 kmh NNE 4.6 mph7.4 kmh 30.53 in1033.9 mb - 0.00 in0.0 mm 0.00 in0.0 mm
05:25 AM 35.7°F2.1°C 23.2°F-4.9°C 60% 2.3 mph N3.7 kmh N 3.5 mph5.6 kmh 30.53 in1033.9 mb - 0.00 in0.0 mm 0.00 in0.0 mm
05:20 AM 35.3°F1.8°C 24.0°F-4.4°C 63% 3.5 mph NNE5.6 kmh NNE 8.1 mph13.0 kmh 30.53 in1033.9 mb - 0.00 in0.0 mm 0.00 in0.0 mm
05:15 AM 35.3°F1.8°C 24.0°F-4.4°C 63% 3.5 mph N5.6 kmh N 4.6 mph7.4 kmh 30.53 in1033.9 mb - 0.00 in0.0 mm 0.00 in0.0 mm
05:10 AM 35.1°F1.7°C 24.5°F-4.2°C 65% 3.5 mph 5.6 kmh 5.8 mph9.3 kmh 30.53 in1033.9 mb - 0.00 in0.0 mm 0.00 in0.0 mm
05:00 AM 35.1°F1.7°C 24.5°F-4.2°C 65% 2.3 mph N3.7 kmh N 3.5 mph5.6 kmh 30.53 in1033.9 mb - 0.00 in0.0 mm 0.00 in0.0 mm
04:55 AM 34.9°F1.6°C 24.3°F-4.3°C 65% 2.3 mph N3.7 kmh N 3.5 mph5.6 kmh 30.53 in1033.9 mb - 0.00 in0.0 mm 0.00 in0.0 mm
04:50 AM 35.0°F1.7°C 24.4°F-4.2°C 65% Calm Calm 2.3 mph3.7 kmh 30.53 in1033.9 mb - 0.00 in0.0 mm 0.00 in0.0 mm
04:45 AM 35.0°F1.7°C 24.4°F-4.2°C 65% 2.3 mph N3.7 kmh N 3.5 mph5.6 kmh 30.53 in1033.9 mb - 0.00 in0.0 mm 0.00 in0.0 mm
04:40 AM 35.3°F1.8°C 24.7°F-4.1°C 65% Calm Calm 1.2 mph1.9 kmh 30.53 in1033.9 mb - 0.00 in0.0 mm 0.00 in0.0 mm
04:35 AM 35.2°F1.8°C 24.6°F-4.1°C 65% 2.3 mph N3.7 kmh N 3.5 mph5.6 kmh 30.53 in1033.9 mb - 0.00 in0.0 mm 0.00 in0.0 mm
04:30 AM 35.4°F1.9°C 24.8°F-4.0°C 65% 1.2 mph N1.9 kmh N 2.3 mph3.7 kmh 30.53 in1033.9 mb - 0.00 in0.0 mm 0.00 in0.0 mm
04:25 AM 35.7°F2.1°C 24.7°F-4.1°C 64% 1.2 mph NW1.9 kmh NW 1.2 mph1.9 kmh 30.53 in1033.9 mb - 0.00 in0.0 mm 0.00 in0.0 mm
04:20 AM 35.9°F2.2°C 24.5°F-4.2°C 63% Calm Calm 1.2 mph1.9 kmh 30.53 in1033.9 mb - 0.00 in0.0 mm 0.00 in0.0 mm
04:15 AM 35.9°F2.2°C 24.9°F-3.9°C 64% 1.2 mph NNW1.9 kmh NNW 3.5 mph5.6 kmh 30.53 in1033.9 mb - 0.00 in0.0 mm 0.00 in0.0 mm
04:10 AM 35.9°F2.2°C 24.9°F-3.9°C 64% 1.2 mph NW1.9 kmh NW 3.5 mph5.6 kmh 30.53 in1033.9 mb - 0.00 in0.0 mm 0.00 in0.0 mm
04:00 AM 35.8°F2.1°C 24.8°F-4.0°C 64% 2.3 mph N3.7 kmh N 3.5 mph5.6 kmh 30.53 in1033.9 mb - 0.00 in0.0 mm 0.00 in0.0 mm
03:55 AM 36.0°F2.2°C 25.0°F-3.9°C 64% 2.3 mph NNW3.7 kmh NNW 3.5 mph5.6 kmh 30.53 in1033.9 mb - 0.00 in0.0 mm 0.00 in0.0 mm
03:50 AM 36.0°F2.2°C 25.0°F-3.9°C 64% Calm Calm 3.5 mph5.6 kmh 30.53 in1033.9 mb - 0.00 in0.0 mm 0.00 in0.0 mm
03:45 AM 36.2°F2.3°C 25.2°F-3.8°C 64% 2.3 mph NNW3.7 kmh NNW 3.5 mph5.6 kmh 30.53 in1033.9 mb - 0.00 in0.0 mm 0.00 in0.0 mm
03:40 AM 36.2°F2.3°C 24.8°F-4.0°C 63% 1.2 mph NW1.9 kmh NW 3.5 mph5.6 kmh 30.53 in1033.9 mb - 0.00 in0.0 mm 0.00 in0.0 mm
03:35 AM 36.2°F2.3°C 24.8°F-4.0°C 63% 2.3 mph NNW3.7 kmh NNW 3.5 mph5.6 kmh 30.53 in1033.9 mb - 0.00 in0.0 mm 0.00 in0.0 mm
03:30 AM 36.2°F2.3°C 24.8°F-4.0°C 63% 2.3 mph N3.7 kmh N 3.5 mph5.6 kmh 30.53 in1033.9 mb - 0.00 in0.0 mm 0.00 in0.0 mm
03:25 AM 36.3°F2.4°C 24.9°F-3.9°C 63% 2.3 mph N3.7 kmh N 3.5 mph5.6 kmh 30.53 in1033.9 mb - 0.00 in0.0 mm 0.00 in0.0 mm
03:20 AM 36.4°F2.4°C 25.0°F-3.9°C 63% Calm Calm 3.5 mph5.6 kmh 30.53 in1033.9 mb - 0.00 in0.0 mm 0.00 in0.0 mm
03:15 AM 36.6°F2.6°C 24.8°F-4.0°C 62% 1.2 mph NW1.9 kmh NW 3.5 mph5.6 kmh 30.52 in1033.5 mb - 0.00 in0.0 mm 0.00 in0.0 mm
03:10 AM 36.4°F2.4°C 25.0°F-3.9°C 63% 2.3 mph N3.7 kmh N 3.5 mph5.6 kmh 30.52 in1033.5 mb - 0.00 in0.0 mm 0.00 in0.0 mm
03:00 AM 36.4°F2.4°C 25.0°F-3.9°C 63% 1.2 mph N1.9 kmh N 4.6 mph7.4 kmh 30.52 in1033.5 mb - 0.00 in0.0 mm 0.00 in0.0 mm
02:55 AM 36.5°F2.5°C 25.5°F-3.6°C 64% 2.3 mph N3.7 kmh N 3.5 mph5.6 kmh 30.52 in1033.5 mb - 0.00 in0.0 mm 0.00 in0.0 mm
02:50 AM 36.5°F2.5°C 25.5°F-3.6°C 64% 2.3 mph NNW3.7 kmh NNW 4.6 mph7.4 kmh 30.53 in1033.9 mb - 0.00 in0.0 mm 0.00 in0.0 mm
02:45 AM 36.5°F2.5°C 25.5°F-3.6°C 64% 2.3 mph NNW3.7 kmh NNW 4.6 mph7.4 kmh 30.53 in1033.9 mb - 0.00 in0.0 mm 0.00 in0.0 mm
02:40 AM 36.6°F2.6°C 25.5°F-3.6°C 64% 2.3 mph NNW3.7 kmh NNW 3.5 mph5.6 kmh 30.53 in1033.9 mb - 0.00 in0.0 mm 0.00 in0.0 mm
02:35 AM 36.6°F2.6°C 25.6°F-3.6°C 64% 1.2 mph N1.9 kmh N 3.5 mph5.6 kmh 30.52 in1033.5 mb - 0.00 in0.0 mm 0.00 in0.0 mm
02:30 AM 36.6°F2.6°C 25.6°F-3.6°C 64% 1.2 mph N1.9 kmh N 4.6 mph7.4 kmh 30.52 in1033.5 mb - 0.00 in0.0 mm 0.00 in0.0 mm
02:25 AM 36.6°F2.6°C 25.6°F-3.6°C 64% 1.2 mph NNW1.9 kmh NNW 3.5 mph5.6 kmh 30.52 in1033.5 mb - 0.00 in0.0 mm 0.00 in0.0 mm
02:20 AM 36.8°F2.7°C 25.4°F-3.7°C 63% 1.2 mph NW1.9 kmh NW 2.3 mph3.7 kmh 30.52 in1033.5 mb - 0.00 in0.0 mm 0.00 in0.0 mm
02:15 AM 37.0°F2.8°C 25.6°F-3.6°C 63% Calm Calm 3.5 mph5.6 kmh 30.52 in1033.5 mb - 0.00 in0.0 mm 0.00 in0.0 mm
02:10 AM 37.3°F2.9°C 25.5°F-3.6°C 62% 1.2 mph NW1.9 kmh NW 3.5 mph5.6 kmh 30.52 in1033.5 mb - 0.00 in0.0 mm 0.00 in0.0 mm
02:00 AM 37.5°F3.1°C 25.3°F-3.7°C 61% 2.3 mph N3.7 kmh N 3.5 mph5.6 kmh 30.52 in1033.5 mb - 0.00 in0.0 mm 0.00 in0.0 mm
01:55 AM 37.6°F3.1°C 25.0°F-3.9°C 60% 2.3 mph 3.7 kmh 3.5 mph5.6 kmh 30.51 in1033.2 mb - 0.00 in0.0 mm 0.00 in0.0 mm
01:50 AM 37.8°F3.2°C 24.7°F-4.1°C 59% 1.2 mph N1.9 kmh N 2.3 mph3.7 kmh 30.51 in1033.2 mb - 0.00 in0.0 mm 0.00 in0.0 mm
01:45 AM 37.8°F3.2°C 24.8°F-4.0°C 59% 2.3 mph NW3.7 kmh NW 3.5 mph5.6 kmh 30.51 in1033.2 mb - 0.00 in0.0 mm 0.00 in0.0 mm
01:40 AM 37.9°F3.3°C 24.8°F-4.0°C 59% 2.3 mph NNE3.7 kmh NNE 2.3 mph3.7 kmh 30.51 in1033.2 mb - 0.00 in0.0 mm 0.00 in0.0 mm
01:35 AM 38.1°F3.4°C 24.7°F-4.1°C 58% 1.2 mph N1.9 kmh N 4.6 mph7.4 kmh 30.51 in1033.2 mb - 0.00 in0.0 mm 0.00 in0.0 mm
01:30 AM 38.4°F3.6°C 24.9°F-3.9°C 58% 2.3 mph NNE3.7 kmh NNE 4.6 mph7.4 kmh 30.51 in1033.2 mb - 0.00 in0.0 mm 0.00 in0.0 mm
01:25 AM 38.6°F3.7°C 24.7°F-4.1°C 57% 1.2 mph NE1.9 kmh NE 2.3 mph3.7 kmh 30.51 in1033.2 mb - 0.00 in0.0 mm 0.00 in0.0 mm
01:20 AM 38.7°F3.7°C 24.8°F-4.0°C 57% 2.3 mph N3.7 kmh N 4.6 mph7.4 kmh 30.51 in1033.2 mb - 0.00 in0.0 mm 0.00 in0.0 mm
01:15 AM 38.8°F3.8°C 24.9°F-3.9°C 57% 2.3 mph NNE3.7 kmh NNE 4.6 mph7.4 kmh 30.51 in1033.2 mb - 0.00 in0.0 mm 0.00 in0.0 mm
01:10 AM 38.9°F3.8°C 24.9°F-3.9°C 57% 2.3 mph NNE3.7 kmh NNE 6.9 mph11.1 kmh 30.51 in1033.2 mb - 0.00 in0.0 mm 0.00 in0.0 mm
01:00 AM 39.1°F3.9°C 24.7°F-4.1°C 56% 3.5 mph NE5.6 kmh NE 6.9 mph11.1 kmh 30.51 in1033.2 mb - 0.00 in0.0 mm 0.00 in0.0 mm
12:55 AM 38.9°F3.8°C 25.0°F-3.9°C 57% 2.3 mph NE3.7 kmh NE 5.8 mph9.3 kmh 30.51 in1033.2 mb - 0.00 in0.0 mm 0.00 in0.0 mm
12:50 AM 39.2°F4.0°C 24.8°F-4.0°C 56% 2.3 mph NNE3.7 kmh NNE 3.5 mph5.6 kmh 30.51 in1033.2 mb - 0.00 in0.0 mm 0.00 in0.0 mm
12:45 AM 39.3°F4.1°C 24.9°F-3.9°C 56% 2.3 mph N3.7 kmh N 3.5 mph5.6 kmh 30.51 in1033.2 mb - 0.00 in0.0 mm 0.00 in0.0 mm
12:40 AM 39.5°F4.2°C 24.7°F-4.1°C 55% 1.2 mph N1.9 kmh N 3.5 mph5.6 kmh 30.51 in1033.2 mb - 0.00 in0.0 mm 0.00 in0.0 mm
12:35 AM 39.9°F4.4°C 24.6°F-4.1°C 54% 2.3 mph NE3.7 kmh NE 5.8 mph9.3 kmh 30.51 in1033.2 mb - 0.00 in0.0 mm 0.00 in0.0 mm
12:30 AM 40.0°F4.4°C 24.7°F-4.1°C 54% 2.3 mph N3.7 kmh N 3.5 mph5.6 kmh 30.51 in1033.2 mb - 0.00 in0.0 mm 0.00 in0.0 mm
12:25 AM 40.0°F4.4°C 24.2°F-4.3°C 53% 3.5 mph N5.6 kmh N 4.6 mph7.4 kmh 30.51 in1033.2 mb - 0.00 in0.0 mm 0.00 in0.0 mm
12:20 AM 40.2°F4.6°C 24.4°F-4.2°C 53% 3.5 mph NNE5.6 kmh NNE 8.1 mph13.0 kmh 30.51 in1033.2 mb - 0.00 in0.0 mm 0.00 in0.0 mm
12:15 AM 40.4°F4.7°C 24.6°F-4.1°C 53% 3.5 mph NE5.6 kmh NE 5.8 mph9.3 kmh 30.51 in1033.2 mb - 0.00 in0.0 mm 0.00 in0.0 mm
12:10 AM 40.4°F4.7°C 24.6°F-4.1°C 53% 3.5 mph NNE5.6 kmh NNE 8.1 mph13.0 kmh 30.51 in1033.2 mb - 0.00 in0.0 mm 0.00 in0.0 mm
12:00 AM 40.3°F4.6°C 25.0°F-3.9°C 54% 3.5 mph NNE5.6 kmh NNE 6.9 mph11.1 kmh 30.50 in1032.8 mb - 0.00 in0.0 mm 0.00 in0.0 mm